createdAt,value
2022-09-04T00:02:32.366Z,37.33
2022-09-04T00:05:21.864Z,37.83
2022-09-04T00:08:13.374Z,38.13
2022-09-04T00:10:52.226Z,34.53
2022-09-04T00:13:41.998Z,32.83
2022-09-04T00:16:23.672Z,44.40
2022-09-04T00:18:59.577Z,31.60
2022-09-04T00:21:49.324Z,29.60
2022-09-04T00:24:22.481Z,31.58
2022-09-04T00:27:08.141Z,33.47
2022-09-04T00:29:45.204Z,31.27
2022-09-04T00:32:23.808Z,35.05
2022-09-04T00:35:13.357Z,34.17
2022-09-04T00:38:03.386Z,32.45
2022-09-04T00:40:53.217Z,38.22
2022-09-04T00:43:42.899Z,31.98
2022-09-04T00:46:32.634Z,41.38
2022-09-04T00:49:18.398Z,42.25
2022-09-04T00:52:08.718Z,41.45
2022-09-04T00:54:58.703Z,37.25
2022-09-04T00:57:48.991Z,33.20
2022-09-04T01:00:23.278Z,39.33
2022-09-04T01:03:13.275Z,38.50
2022-09-04T01:05:57.481Z,36.30
2022-09-04T01:08:48.151Z,52.08
2022-09-04T01:11:37.930Z,50.40
2022-09-04T01:14:19.552Z,48.95
2022-09-04T01:16:53.735Z,47.30
2022-09-04T01:19:43.636Z,42.40
2022-09-04T01:22:34.276Z,41.13
2022-09-04T01:25:23.977Z,39.47
2022-09-04T01:28:14.155Z,28.88
2022-09-04T01:31:03.923Z,28.48
2022-09-04T01:33:56.302Z,29.40
2022-09-04T01:36:47.038Z,29.77
2022-09-04T01:39:17.612Z,31.80
2022-09-04T01:41:56.174Z,32.15
2022-09-04T01:44:30.251Z,31.77
2022-09-04T01:47:06.331Z,30.67
2022-09-04T01:49:56.061Z,30.23
2022-09-04T01:52:47.357Z,29.85
2022-09-04T01:55:29.224Z,30.25
2022-09-04T01:58:19.878Z,29.58
2022-09-04T02:01:01.601Z,31.88
2022-09-04T02:03:52.726Z,30.38
2022-09-04T02:06:29.390Z,28.52
2022-09-04T02:09:19.468Z,31.63
2022-09-04T02:11:56.911Z,29.27
2022-09-04T02:14:47.349Z,28.83
2022-09-04T02:17:26.488Z,27.48
2022-09-04T02:20:16.864Z,31.00
2022-09-04T02:23:06.907Z,34.58
2022-09-04T02:25:57.074Z,29.30
2022-09-04T02:28:46.778Z,26.20
2022-09-04T02:31:23.032Z,27.92
2022-09-04T02:34:12.978Z,27.15
2022-09-04T02:36:50.144Z,25.77
2022-09-04T02:39:43.675Z,27.05
2022-09-04T02:42:33.980Z,24.65
2022-09-04T02:45:13.774Z,25.88
2022-09-04T02:47:53.556Z,28.90
2022-09-04T02:50:31.819Z,27.60
2022-09-04T02:53:21.993Z,27.55
2022-09-04T02:55:59.244Z,25.73
2022-09-04T02:58:51.626Z,27.85
2022-09-04T03:01:41.425Z,29.67
2022-09-04T03:04:32.756Z,25.55
2022-09-04T03:07:12.525Z,28.92
2022-09-04T03:09:53.499Z,26.60
2022-09-04T03:12:39.947Z,24.40
2022-09-04T03:15:20.233Z,26.63
2022-09-04T03:17:56.898Z,27.85
2022-09-04T03:20:29.507Z,26.33
2022-09-04T03:23:19.922Z,25.45
2022-09-04T03:26:07.324Z,24.02
2022-09-04T03:28:57.861Z,22.98
2022-09-04T03:31:36.984Z,23.33
2022-09-04T03:34:27.116Z,25.02
2022-09-04T03:37:17.934Z,22.70
2022-09-04T03:40:08.256Z,22.30
2022-09-04T03:42:59.220Z,22.67
2022-09-04T03:45:48.959Z,22.17
2022-09-04T03:48:39.287Z,21.60
2022-09-04T03:51:27.130Z,22.52
2022-09-04T03:54:06.659Z,23.75
2022-09-04T03:56:46.891Z,28.35
2022-09-04T03:59:38.060Z,29.17
2022-09-04T04:02:27.777Z,24.88
2022-09-04T04:05:17.519Z,23.95
2022-09-04T04:08:00.574Z,25.13
2022-09-04T04:10:51.047Z,23.48
2022-09-04T04:13:32.918Z,23.15
2022-09-04T04:16:24.493Z,24.15
2022-09-04T04:19:12.235Z,23.38
2022-09-04T04:22:02.623Z,23.17
2022-09-04T04:24:52.270Z,21.83
2022-09-04T04:27:31.401Z,21.73
2022-09-04T04:30:05.655Z,21.80
2022-09-04T04:32:45.441Z,20.92
2022-09-04T04:35:35.130Z,39.05
2022-09-04T04:38:26.226Z,28.30
2022-09-04T04:41:08.161Z,22.90
2022-09-04T04:43:54.533Z,21.70
2022-09-04T04:46:38.349Z,21.15
2022-09-04T04:49:21.503Z,35.67
2022-09-04T04:52:11.601Z,35.10
2022-09-04T04:55:06.778Z,30.13
2022-09-04T04:57:56.453Z,20.77
2022-09-04T05:00:31.996Z,19.10
2022-09-04T05:03:09.015Z,20.90
2022-09-04T05:05:59.052Z,18.10
2022-09-04T05:08:49.484Z,18.83
2022-09-04T05:11:29.205Z,17.05
2022-09-04T05:14:20.140Z,17.35
2022-09-04T05:17:10.128Z,18.00
2022-09-04T05:20:00.250Z,29.05
2022-09-04T05:22:43.496Z,31.17
2022-09-04T05:25:34.027Z,32.63
2022-09-04T05:28:24.108Z,19.98
2022-09-04T05:31:14.129Z,20.13
2022-09-04T05:33:54.537Z,23.67
2022-09-04T05:36:44.294Z,20.88
2022-09-04T05:39:25.043Z,20.73
2022-09-04T05:42:15.157Z,22.60
2022-09-04T05:45:01.321Z,26.90
2022-09-04T05:47:51.289Z,31.38
2022-09-04T05:50:41.292Z,26.40
2022-09-04T05:53:31.260Z,31.60
2022-09-04T05:56:21.300Z,27.80
2022-09-04T05:59:08.012Z,23.52
2022-09-04T06:01:57.937Z,30.83
2022-09-04T06:04:48.179Z,30.75
2022-09-04T06:07:24.580Z,29.83
2022-09-04T06:10:14.661Z,28.48
2022-09-04T06:13:04.394Z,30.73
2022-09-04T06:15:53.220Z,29.30
2022-09-04T06:18:34.264Z,33.67
2022-09-04T06:21:24.254Z,34.05
2022-09-04T06:24:01.207Z,30.63
2022-09-04T06:26:47.556Z,22.38
2022-09-04T06:29:28.826Z,20.92
2022-09-04T06:32:18.574Z,21.05
2022-09-04T06:35:10.966Z,20.73
2022-09-04T06:38:01.042Z,22.65
2022-09-04T06:40:50.952Z,26.00
2022-09-04T06:43:37.888Z,26.25
2022-09-04T06:46:28.707Z,22.58
2022-09-04T06:49:11.473Z,24.02
2022-09-04T06:51:55.019Z,21.05
2022-09-04T06:54:44.939Z,22.60
2022-09-04T06:57:36.693Z,22.48
2022-09-04T07:00:10.971Z,20.48
2022-09-04T07:02:55.963Z,23.20
2022-09-04T07:05:45.719Z,24.58
2022-09-04T07:08:34.326Z,24.70
2022-09-04T07:11:13.612Z,22.98
2022-09-04T07:14:03.321Z,24.85
2022-09-04T07:16:53.117Z,23.27
2022-09-04T07:19:43.130Z,26.55
2022-09-04T07:22:25.029Z,24.90
2022-09-04T07:25:15.039Z,22.67
2022-09-04T07:27:54.390Z,24.38
2022-09-04T07:30:27.481Z,24.08
2022-09-04T07:33:17.603Z,25.63
2022-09-04T07:35:53.972Z,24.35
2022-09-04T07:38:44.255Z,23.80
2022-09-04T07:41:40.870Z,21.95
2022-09-04T07:44:15.740Z,21.85
2022-09-04T07:46:52.122Z,22.55
2022-09-04T07:49:33.002Z,21.65
2022-09-04T07:52:09.588Z,21.15
2022-09-04T07:54:50.797Z,21.48
2022-09-04T07:57:40.607Z,20.65
2022-09-04T08:00:19.705Z,25.02
2022-09-04T08:03:13.643Z,21.05
2022-09-04T08:06:03.467Z,20.98
2022-09-04T08:08:46.124Z,22.98
2022-09-04T08:11:34.407Z,23.77
2022-09-04T08:14:24.229Z,20.58
2022-09-04T08:17:19.514Z,19.00
2022-09-04T08:19:59.855Z,19.50
2022-09-04T08:22:50.320Z,20.33
2022-09-04T08:25:26.589Z,19.85
2022-09-04T08:28:19.016Z,19.30
2022-09-04T08:31:03.455Z,19.30
2022-09-04T08:33:53.236Z,19.42
2022-09-04T08:36:42.914Z,18.98
2022-09-04T08:39:16.509Z,18.17
2022-09-04T08:42:07.335Z,18.25
2022-09-04T08:44:50.211Z,17.95
2022-09-04T08:47:40.307Z,17.95
2022-09-04T08:50:31.320Z,17.17
2022-09-04T08:53:21.473Z,18.00
2022-09-04T08:56:11.713Z,17.70
2022-09-04T08:58:54.226Z,19.40
2022-09-04T09:01:45.830Z,18.60
2022-09-04T09:04:37.221Z,18.80
2022-09-04T09:07:27.113Z,18.25
2022-09-04T09:10:17.156Z,19.52
2022-09-04T09:13:07.054Z,18.42
2022-09-04T09:15:57.099Z,17.38
2022-09-04T09:18:40.516Z,17.88
2022-09-04T09:21:28.777Z,17.80
2022-09-04T09:24:18.725Z,17.33
2022-09-04T09:27:08.736Z,14.07
2022-09-04T09:29:58.527Z,15.70
2022-09-04T09:32:48.300Z,15.00
2022-09-04T09:35:38.907Z,13.52
2022-09-04T09:38:29.524Z,15.30
2022-09-04T09:41:16.648Z,15.20
2022-09-04T09:44:06.407Z,18.75
2022-09-04T09:46:56.236Z,14.05
2022-09-04T09:49:46.790Z,14.13
2022-09-04T09:52:36.576Z,12.52
2022-09-04T09:55:26.985Z,13.50
2022-09-04T09:58:16.980Z,12.65
2022-09-04T10:01:08.603Z,14.13
2022-09-04T10:03:58.633Z,11.82
2022-09-04T10:06:48.434Z,12.38
2022-09-04T10:09:39.228Z,12.13
2022-09-04T10:12:29.675Z,12.80
2022-09-04T10:15:19.513Z,14.38
2022-09-04T10:18:09.597Z,15.20
2022-09-04T10:20:59.286Z,17.98
2022-09-04T10:23:43.554Z,13.07
2022-09-04T10:26:36.720Z,14.15
2022-09-04T10:29:27.989Z,12.68
2022-09-04T10:32:04.327Z,13.77
2022-09-04T10:34:55.903Z,14.80
2022-09-04T10:37:45.946Z,12.73
2022-09-04T10:40:44.491Z,13.45
2022-09-04T10:43:25.715Z,16.77
2022-09-04T10:46:23.435Z,17.90
2022-09-04T10:49:14.207Z,37.33
2022-09-04T10:52:06.473Z,14.77
2022-09-04T10:54:52.302Z,15.20
2022-09-04T10:57:41.972Z,16.17
2022-09-04T11:00:20.898Z,15.00
2022-09-04T11:03:12.654Z,17.80
2022-09-04T11:06:03.899Z,18.90
2022-09-04T11:08:53.427Z,16.90
2022-09-04T11:11:43.165Z,17.75
2022-09-04T11:14:32.805Z,16.75
2022-09-04T11:17:24.349Z,13.15
2022-09-04T11:20:17.730Z,12.18
2022-09-04T11:23:01.863Z,11.65
2022-09-04T11:25:53.637Z,12.40
2022-09-04T11:28:45.793Z,13.23
2022-09-04T11:31:36.187Z,11.95
2022-09-04T11:34:27.868Z,11.10
2022-09-04T11:37:16.853Z,10.75
2022-09-04T11:40:07.819Z,11.90
2022-09-04T11:42:57.656Z,11.88
2022-09-04T11:45:49.685Z,11.07
2022-09-04T11:48:43.529Z,11.32
2022-09-04T11:51:35.965Z,11.93
2022-09-04T11:54:22.564Z,11.88
2022-09-04T11:57:15.024Z,12.10
2022-09-04T12:00:07.425Z,11.98
2022-09-04T12:02:57.191Z,11.63
2022-09-04T12:05:47.450Z,11.52
2022-09-04T12:08:40.204Z,11.75
2022-09-04T12:11:34.605Z,13.55
2022-09-04T12:14:21.463Z,15.45
2022-09-04T12:17:12.366Z,12.38
2022-09-04T12:20:05.162Z,13.73
2022-09-04T12:22:57.382Z,12.88
2022-09-04T12:25:47.677Z,14.07
2022-09-04T12:28:30.147Z,13.25
2022-09-04T12:31:09.404Z,13.02
2022-09-04T12:33:59.062Z,15.15
2022-09-04T12:36:49.270Z,14.68
2022-09-04T12:39:29.155Z,16.27
2022-09-04T12:42:19.220Z,13.52
2022-09-04T12:45:03.710Z,14.55
2022-09-04T12:47:57.265Z,15.55
2022-09-04T12:50:48.160Z,16.20
2022-09-04T12:53:38.978Z,16.65
2022-09-04T12:56:28.648Z,16.80
2022-09-04T12:59:19.011Z,15.52
2022-09-04T13:02:03.052Z,15.88
2022-09-04T13:04:56.863Z,14.95
2022-09-04T13:07:46.967Z,18.15
2022-09-04T13:10:34.272Z,14.68
2022-09-04T13:13:21.226Z,14.77
2022-09-04T13:16:11.337Z,15.05
2022-09-04T13:19:01.697Z,17.17
2022-09-04T13:21:48.014Z,16.45
2022-09-04T13:24:39.027Z,17.90
2022-09-04T13:27:32.514Z,18.42
2022-09-04T13:30:25.770Z,21.05
2022-09-04T13:33:15.680Z,30.98
2022-09-04T13:36:05.824Z,33.08
2022-09-04T13:38:56.807Z,22.92
2022-09-04T13:41:46.931Z,19.63
2022-09-04T13:44:40.043Z,18.38
2022-09-04T13:47:13.819Z,20.13
2022-09-04T13:50:09.892Z,17.88
2022-09-04T13:52:54.071Z,17.83
2022-09-04T13:55:30.020Z,17.40
2022-09-04T13:58:12.398Z,17.63
2022-09-04T14:00:47.675Z,15.88
2022-09-04T14:03:37.991Z,18.70
2022-09-04T14:06:10.333Z,20.75
2022-09-04T14:08:41.656Z,18.27
2022-09-04T14:11:21.034Z,19.02
2022-09-04T14:14:04.789Z,18.02
2022-09-04T14:16:38.053Z,14.10
2022-09-04T14:19:16.040Z,15.77
2022-09-04T14:22:03.907Z,14.60
2022-09-04T14:24:57.739Z,13.88
2022-09-04T14:27:47.746Z,14.40
2022-09-04T14:30:19.664Z,14.45
2022-09-04T14:33:05.463Z,14.63
2022-09-04T14:36:01.302Z,15.98
2022-09-04T14:38:43.914Z,15.77
2022-09-04T14:41:34.055Z,15.93
2022-09-04T14:44:14.414Z,16.08
2022-09-04T14:47:04.551Z,16.60
2022-09-04T14:49:36.076Z,17.08
2022-09-04T14:52:13.388Z,16.50
2022-09-04T14:54:47.738Z,15.65
2022-09-04T14:57:37.908Z,16.65
2022-09-04T15:00:22.175Z,17.38
2022-09-04T15:03:13.586Z,16.80
2022-09-04T15:05:55.121Z,18.40
2022-09-04T15:08:38.093Z,18.52
2022-09-04T15:11:12.025Z,18.35
2022-09-04T15:14:01.339Z,32.95
2022-09-04T15:16:52.186Z,30.13
2022-09-04T15:19:29.907Z,14.70
2022-09-04T15:22:19.607Z,15.70
2022-09-04T15:24:55.351Z,17.40
2022-09-04T15:27:45.494Z,16.38
2022-09-04T15:30:26.665Z,17.50
2022-09-04T15:33:16.748Z,15.02
2022-09-04T15:35:48.654Z,16.23
2022-09-04T15:38:26.747Z,18.08
2022-09-04T15:41:20.215Z,17.00
2022-09-04T15:43:53.798Z,17.55
2022-09-04T15:46:30.964Z,17.50
2022-09-04T15:49:21.060Z,19.40
2022-09-04T15:52:00.849Z,23.35
2022-09-04T15:54:34.887Z,17.35
2022-09-04T15:57:24.725Z,16.60
2022-09-04T16:00:00.695Z,15.35
2022-09-04T16:02:56.250Z,16.67
2022-09-04T16:05:46.454Z,16.98
2022-09-04T16:08:26.902Z,15.55
2022-09-04T16:11:09.637Z,15.18
2022-09-04T16:13:58.056Z,16.00
2022-09-04T16:16:36.795Z,16.27
2022-09-04T16:19:26.667Z,15.68
2022-09-04T16:22:04.420Z,16.73
2022-09-04T16:24:55.463Z,17.08
2022-09-04T16:27:27.591Z,19.30
2022-09-04T16:30:05.374Z,17.85
2022-09-04T16:32:37.516Z,16.30
2022-09-04T16:35:13.523Z,16.85
2022-09-04T16:37:53.266Z,19.55
2022-09-04T16:40:32.568Z,17.27
2022-09-04T16:43:16.843Z,18.48
2022-09-04T16:46:09.239Z,18.13
2022-09-04T16:48:42.939Z,71.68
2022-09-04T16:51:41.132Z,21.98
2022-09-04T16:54:15.960Z,20.10
2022-09-04T16:56:51.192Z,19.80
2022-09-04T16:59:41.065Z,21.58
2022-09-04T17:02:36.354Z,19.63
2022-09-04T17:05:28.755Z,21.95
2022-09-04T17:08:04.257Z,23.30
2022-09-04T17:10:38.142Z,21.27
2022-09-04T17:13:12.267Z,22.17
2022-09-04T17:16:01.826Z,21.08
2022-09-04T17:18:33.782Z,22.25
2022-09-04T17:27:07.886Z,21.55
2022-09-04T17:28:55.744Z,26.02
2022-09-04T17:29:15.600Z,23.17
2022-09-04T17:30:35.511Z,21.30
2022-09-04T17:40:08.982Z,22.20
2022-09-04T17:40:47.148Z,22.52
2022-09-04T17:40:49.127Z,22.67
2022-09-04T17:42:27.487Z,25.25
2022-09-04T17:45:17.766Z,23.65
2022-09-04T17:47:47.875Z,23.75
2022-09-04T17:50:25.978Z,22.25
2022-09-04T17:53:04.523Z,21.50
2022-09-04T17:55:39.191Z,23.58
2022-09-04T17:58:37.881Z,22.10
2022-09-04T18:01:19.665Z,20.75
2022-09-04T18:04:20.876Z,20.13
2022-09-04T18:06:58.172Z,44.30
2022-09-04T18:09:47.771Z,20.27
2022-09-04T18:12:25.087Z,24.92
2022-09-04T18:15:32.262Z,22.55
2022-09-04T18:18:16.970Z,22.58
2022-09-04T18:20:55.625Z,23.15
2022-09-04T18:23:51.649Z,22.42
2022-09-04T18:26:27.897Z,22.48
2022-09-04T18:31:25.789Z,21.83
2022-09-04T18:37:20.412Z,22.90
2022-09-04T18:37:21.674Z,23.13
2022-09-04T18:38:45.424Z,22.60
2022-09-04T18:48:44.262Z,23.65
2022-09-04T18:50:20.229Z,22.48
2022-09-04T18:50:51.123Z,22.15
2022-09-04T18:53:36.649Z,24.35
2022-09-04T18:56:27.999Z,22.75
2022-09-04T18:59:00.522Z,23.23
2022-09-04T19:01:40.041Z,24.33
2022-09-04T19:04:30.064Z,22.35
2022-09-04T19:07:07.316Z,23.63
2022-09-04T19:09:58.098Z,23.83
2022-09-04T19:12:35.854Z,22.17
2022-09-04T19:15:37.844Z,22.20
2022-09-04T19:18:14.965Z,23.88
2022-09-04T19:20:49.583Z,23.95
2022-09-04T19:23:35.237Z,23.52
2022-09-04T19:26:11.504Z,22.10
2022-09-04T19:28:53.182Z,24.50
2022-09-04T19:31:43.140Z,23.52
2022-09-04T19:34:33.025Z,22.90
2022-09-04T19:37:26.004Z,24.00
2022-09-04T19:45:55.887Z,22.13
2022-09-04T19:46:11.848Z,21.67
2022-09-04T19:46:27.748Z,22.75
2022-09-04T19:49:33.511Z,21.27
2022-09-04T19:53:21.324Z,22.65
2022-09-04T19:55:24.579Z,21.55
2022-09-04T19:57:54.206Z,19.85
2022-09-04T20:00:43.065Z,19.10
2022-09-04T20:03:35.183Z,19.48
2022-09-04T20:06:21.805Z,20.95
2022-09-04T20:08:55.869Z,21.38
2022-09-04T20:11:35.979Z,20.20
2022-09-04T20:14:26.101Z,20.90
2022-09-04T20:17:03.241Z,22.23
2022-09-04T20:19:43.136Z,22.65
2022-09-04T20:22:33.480Z,23.27
2022-09-04T20:25:25.776Z,23.88
2022-09-04T20:28:15.481Z,23.63
2022-09-04T20:30:49.297Z,22.25
2022-09-04T20:33:22.573Z,23.73
2022-09-04T20:36:01.211Z,23.55
2022-09-04T20:38:51.226Z,24.33
2022-09-04T20:41:26.258Z,22.98
2022-09-04T20:44:04.841Z,22.17
2022-09-04T20:52:40.855Z,21.35
2022-09-04T20:52:58.422Z,25.00
2022-09-04T20:53:13.451Z,25.00
2022-09-04T20:56:05.015Z,23.33
2022-09-04T21:03:06.582Z,23.95
2022-09-04T21:03:20.219Z,22.30
2022-09-04T21:05:03.018Z,24.27
2022-09-04T21:07:37.615Z,23.05
2022-09-04T21:10:18.925Z,24.48
2022-09-04T21:13:12.303Z,22.70
2022-09-04T21:15:54.814Z,24.17
2022-09-04T21:18:36.329Z,26.52
2022-09-04T21:21:17.454Z,26.33
2022-09-04T21:24:09.080Z,26.55
2022-09-04T21:27:02.518Z,27.42
2022-09-04T21:29:45.118Z,26.77
2022-09-04T21:32:31.508Z,25.20
2022-09-04T21:35:09.772Z,27.20
2022-09-04T21:37:49.407Z,27.50
2022-09-04T21:40:49.782Z,27.23
2022-09-04T21:43:35.977Z,25.08
2022-09-04T21:46:23.925Z,26.38
2022-09-04T21:49:08.419Z,29.88
2022-09-04T21:51:48.388Z,26.92
2022-09-04T21:54:37.926Z,26.75
2022-09-04T22:02:40.619Z,27.17
2022-09-04T22:02:43.086Z,27.80
2022-09-04T22:03:32.380Z,25.20
2022-09-04T22:06:27.475Z,27.55
2022-09-04T22:13:29.711Z,29.58
2022-09-04T22:13:43.502Z,29.25
2022-09-04T22:15:12.724Z,29.45
2022-09-04T22:18:04.259Z,28.95
2022-09-04T22:20:54.393Z,28.38
2022-09-04T22:23:37.430Z,27.77
2022-09-04T22:26:27.155Z,28.27
2022-09-04T22:29:17.222Z,29.33
2022-09-04T22:32:05.431Z,26.30
2022-09-04T22:35:00.060Z,28.33
2022-09-04T22:37:50.099Z,28.20
2022-09-04T22:40:55.777Z,29.23
2022-09-04T22:43:28.304Z,28.15
2022-09-04T22:46:32.295Z,29.77
2022-09-04T22:49:21.717Z,29.65
2022-09-04T22:52:11.665Z,27.33
2022-09-04T22:55:12.872Z,26.88
2022-09-04T22:58:11.453Z,28.65
2022-09-04T23:01:03.786Z,26.08
2022-09-04T23:03:53.609Z,27.15
2022-09-04T23:12:47.627Z,28.10
2022-09-04T23:13:51.602Z,27.63
2022-09-04T23:13:52.186Z,27.63
2022-09-04T23:16:03.247Z,25.90
2022-09-04T23:23:56.253Z,26.63
2022-09-04T23:26:38.917Z,26.10
2022-09-04T23:26:46.445Z,29.60
2022-09-04T23:28:27.143Z,28.90
2022-09-04T23:31:27.494Z,28.80
2022-09-04T23:34:19.157Z,26.40
2022-09-04T23:36:54.831Z,28.35
2022-09-04T23:39:44.552Z,29.33
2022-09-04T23:42:31.730Z,29.23
2022-09-04T23:45:21.477Z,27.60
2022-09-04T23:48:11.495Z,28.58
2022-09-04T23:51:01.182Z,32.75
2022-09-04T23:53:38.661Z,30.65
2022-09-04T23:56:19.758Z,29.40
2022-09-04T23:59:25.451Z,29.20
